Time;durP1;ratioP1;P1;durP2;ratioP2;P2;SDS_P1;SDS_P2;PMS_P1;PMS_P2;Temp;Humidity;BMP_temperature;BMP_pressure;BME280_temperature;BME280_humidity;BME280_pressure;Samples;Min_cycle;Max_cycle;Signal;HPM_P1;HPM_P2
2023/05/18 00:00:18;;;;;;;6.05;3.55;;;;;9.80;99306.00;;;;5054874;28;20045;-70
2023/05/18 00:02:47;;;;;;;9.52;3.70;;;;;9.90;99304.00;;;;5058553;28;20060;-69
2023/05/18 00:05:16;;;;;;;8.20;3.45;;;;;10.00;99313.00;;;;5056336;28;20106;-68
2023/05/18 00:07:43;;;;;;;10.18;4.20;;;;;10.10;99307.00;;;;5054062;28;20048;-67
2023/05/18 00:10:11;;;;;;;6.85;3.13;;;;;10.10;99307.00;;;;5052547;28;20116;-68
2023/05/18 00:12:38;;;;;;;8.73;3.05;;;;;10.00;99306.00;;;;5052772;28;20095;-69
2023/05/18 00:15:05;;;;;;;9.90;3.53;;;;;9.80;99295.00;;;;5051325;28;20136;-69
2023/05/18 00:17:31;;;;;;;7.80;3.28;;;;;9.80;99291.00;;;;5052553;28;20048;-68
2023/05/18 00:19:59;;;;;;;7.20;3.65;;;;;9.70;99287.00;;;;5052271;28;20075;-68
2023/05/18 00:22:26;;;;;;;10.20;4.32;;;;;9.60;99282.00;;;;5034957;28;20087;-68
2023/05/18 00:24:52;;;;;;;6.13;3.70;;;;;9.70;99287.00;;;;5052293;28;20116;-70
2023/05/18 00:27:19;;;;;;;7.43;3.63;;;;;9.70;99289.00;;;;5052263;28;20047;-68
2023/05/18 00:29:46;;;;;;;9.25;3.75;;;;;9.80;99286.00;;;;5050651;28;20053;-69
2023/05/18 00:32:12;;;;;;;9.52;3.40;;;;;9.80;99285.00;;;;5034585;28;20049;-69
2023/05/18 00:34:39;;;;;;;7.13;3.67;;;;;9.80;99289.00;;;;5050595;28;20065;-70
2023/05/18 00:37:05;;;;;;;6.45;3.50;;;;;9.50;99281.00;;;;5052200;28;20106;-69
2023/05/18 00:39:32;;;;;;;8.55;3.92;;;;;9.50;99286.00;;;;5050760;28;20425;-69
2023/05/18 00:42:01;;;;;;;7.70;3.40;;;;;9.40;99287.00;;;;5050857;28;20553;-69
2023/05/18 00:44:28;;;;;;;9.25;3.30;;;;;9.40;99284.00;;;;5050682;28;20040;-69
2023/05/18 00:46:54;;;;;;;10.48;3.45;;;;;9.50;99279.00;;;;5050759;28;20052;-69
2023/05/18 00:49:21;;;;;;;8.23;3.25;;;;;9.50;99280.00;;;;5051781;28;20047;-69
2023/05/18 00:51:48;;;;;;;9.40;3.17;;;;;9.30;99279.00;;;;5050701;28;20501;-69
2023/05/18 00:54:15;;;;;;;12.75;3.60;;;;;9.20;99280.00;;;;5050579;28;20166;-67
2023/05/18 00:56:45;;;;;;;8.82;3.22;;;;;9.20;99288.00;;;;5050646;28;20136;-67
2023/05/18 00:59:12;;;;;;;6.85;3.35;;;;;9.10;99279.00;;;;5051691;28;20041;-68
2023/05/18 01:01:45;;;;;;;7.53;3.33;;;;;9.10;99279.00;;;;5034341;28;20099;-68
2023/05/18 01:04:15;;;;;;;9.13;3.10;;;;;9.00;99275.00;;;;5055912;28;20041;-68
2023/05/18 01:06:42;;;;;;;6.93;3.20;;;;;9.10;99268.00;;;;5056087;28;20071;-67
2023/05/18 01:09:11;;;;;;;9.48;3.63;;;;;9.00;99281.00;;;;5038605;28;20067;-69
2023/05/18 01:11:50;;;;;;;6.95;3.53;;;;;8.90;99271.00;;;;5054804;28;20048;-69
2023/05/18 01:14:40;;;;;;;8.02;3.22;;;;;8.80;99271.00;;;;5054792;28;20141;-69
2023/05/18 01:17:42;;;;;;;13.93;3.28;;;;;8.80;99274.00;;;;5038159;28;20072;-69
2023/05/18 01:20:18;;;;;;;8.53;3.13;;;;;8.70;99275.00;;;;5054263;28;20582;-68
2023/05/18 01:23:03;;;;;;;7.75;3.40;;;;;8.70;99272.00;;;;5054703;28;20308;-69
2023/05/18 01:25:30;;;;;;;10.45;3.58;;;;;8.70;99275.00;;;;5054267;28;20059;-68
2023/05/18 01:28:05;;;;;;;10.32;3.90;;;;;8.80;99263.00;;;;5054266;28;20103;-69
2023/05/18 01:30:34;;;;;;;6.95;3.55;;;;;8.70;99270.00;;;;5053922;28;20044;-69
2023/05/18 01:33:09;;;;;;;10.82;4.20;;;;;8.60;99266.00;;;;5054042;28;20056;-69
2023/05/18 01:35:36;;;;;;;8.15;3.55;;;;;8.60;99263.00;;;;5055480;28;20090;-69
2023/05/18 01:38:03;;;;;;;11.25;3.85;;;;;8.50;99271.00;;;;5054131;28;20049;-70
2023/05/18 01:40:39;;;;;;;7.40;3.58;;;;;8.50;99264.00;;;;5055119;28;20074;-69
2023/05/18 01:43:14;;;;;;;9.02;3.60;;;;;8.40;99264.00;;;;5055805;28;20071;-67
2023/05/18 01:45:45;;;;;;;9.70;3.97;;;;;8.40;99261.00;;;;5053998;28;20766;-66
2023/05/18 01:48:17;;;;;;;6.60;3.38;;;;;8.50;99270.00;;;;5055265;28;20140;-68
2023/05/18 01:50:47;;;;;;;11.73;3.85;;;;;8.50;99261.00;;;;5053676;28;20055;-67
2023/05/18 01:53:40;;;;;;;7.10;3.42;;;;;8.60;99261.00;;;;5037369;28;20049;-69
2023/05/18 01:56:07;;;;;;;5.72;3.83;;;;;8.60;99260.00;;;;5054022;28;20056;-70
2023/05/18 01:58:36;;;;;;;7.60;3.65;;;;;8.40;99274.00;;;;5054053;28;20048;-70
2023/05/18 02:01:03;;;;;;;7.90;3.58;;;;;8.40;99259.00;;;;5053911;28;20060;-70
2023/05/18 02:03:33;;;;;;;5.55;3.22;;;;;8.50;99260.00;;;;5054974;28;20053;-70
2023/05/18 02:05:59;;;;;;;7.90;3.58;;;;;8.40;99262.00;;;;5054925;28;20052;-70
2023/05/18 02:08:26;;;;;;;8.55;3.72;;;;;8.40;99261.00;;;;5053676;28;20049;-70
2023/05/18 02:10:53;;;;;;;9.57;3.95;;;;;8.30;99251.00;;;;5053421;28;20041;-70
2023/05/18 02:13:20;;;;;;;9.18;3.65;;;;;8.20;99247.00;;;;5054606;28;20040;-69
2023/05/18 02:15:46;;;;;;;5.38;3.20;;;;;8.10;99255.00;;;;5038955;28;20055;-70
2023/05/18 02:18:13;;;;;;;6.38;3.53;;;;;8.20;99258.00;;;;5054849;28;20506;-70
2023/05/18 02:20:39;;;;;;;8.80;3.72;;;;;8.30;99257.00;;;;5056029;28;20072;-70
2023/05/18 02:23:06;;;;;;;6.93;3.20;;;;;8.20;99251.00;;;;5054553;28;20119;-69
2023/05/18 02:25:33;;;;;;;9.43;3.22;;;;;8.20;99258.00;;;;5055873;28;20489;-69
2023/05/18 02:27:59;;;;;;;6.43;3.53;;;;;8.20;99253.00;;;;5055202;28;20048;-70
2023/05/18 02:30:26;;;;;;;7.65;3.38;;;;;8.30;99248.00;;;;5053962;28;20546;-70
2023/05/18 02:32:53;;;;;;;6.82;3.50;;;;;8.30;99251.00;;;;5054370;28;20056;-69
2023/05/18 02:35:19;;;;;;;5.35;3.78;;;;;8.20;99246.00;;;;5054968;28;20530;-69
2023/05/18 02:37:48;;;;;;;11.48;4.15;;;;;8.00;99246.00;;;;5055770;28;20502;-68
2023/05/18 02:40:15;;;;;;;6.25;3.90;;;;;7.90;99247.00;;;;5054945;28;20187;-68
2023/05/18 02:42:42;;;;;;;10.65;3.92;;;;;8.00;99237.00;;;;5038773;28;20502;-69
2023/05/18 02:45:10;;;;;;;10.77;3.97;;;;;8.00;99245.00;;;;5053652;28;20505;-69
2023/05/18 02:47:37;;;;;;;7.97;3.63;;;;;8.10;99249.00;;;;5053789;28;20049;-68
2023/05/18 02:50:05;;;;;;;6.57;3.38;;;;;8.00;99251.00;;;;5054172;28;20055;-68
2023/05/18 02:52:32;;;;;;;7.85;3.38;;;;;8.00;99255.00;;;;5054788;28;20052;-68
2023/05/18 02:54:59;;;;;;;5.97;3.50;;;;;8.00;99255.00;;;;5053101;28;20045;-70
2023/05/18 02:57:45;;;;;;;10.27;3.70;;;;;8.00;99253.00;;;;5040152;28;20103;-68
2023/05/18 03:00:15;;;;;;;8.52;3.78;;;;;7.90;99255.00;;;;5037634;28;20041;-69
2023/05/18 03:02:47;;;;;;;8.10;3.20;;;;;7.90;99249.00;;;;5053084;28;20131;-68
2023/05/18 03:05:15;;;;;;;6.60;3.33;;;;;8.00;99248.00;;;;5054059;28;20041;-69
2023/05/18 03:07:49;;;;;;;7.93;3.33;;;;;8.00;99262.00;;;;5053996;28;20418;-69
2023/05/18 03:10:18;;;;;;;7.03;3.42;;;;;7.90;99250.00;;;;5052395;28;20133;-69
2023/05/18 03:12:45;;;;;;;6.97;3.65;;;;;7.90;99256.00;;;;5052784;28;20493;-69
2023/05/18 03:15:15;;;;;;;10.25;3.47;;;;;7.90;99258.00;;;;5035806;28;20406;-68
2023/05/18 03:17:42;;;;;;;6.75;3.40;;;;;7.80;99256.00;;;;5035983;28;20426;-68
2023/05/18 03:20:10;;;;;;;9.45;3.65;;;;;7.60;99252.00;;;;5035951;28;20044;-69
2023/05/18 03:22:37;;;;;;;10.85;3.97;;;;;7.50;99247.00;;;;5052179;28;20474;-69
2023/05/18 03:25:04;;;;;;;6.80;3.40;;;;;7.50;99255.00;;;;5053435;28;20119;-68
2023/05/18 03:27:31;;;;;;;6.75;3.35;;;;;7.50;99245.00;;;;5052268;28;20048;-69
2023/05/18 03:29:58;;;;;;;10.60;3.67;;;;;7.60;99245.00;;;;5054056;28;20044;-69
2023/05/18 03:32:27;;;;;;;9.98;3.65;;;;;7.60;99251.00;;;;5053429;28;20044;-69
2023/05/18 03:34:54;;;;;;;8.10;3.25;;;;;7.60;99249.00;;;;5053883;28;20440;-69
2023/05/18 03:37:20;;;;;;;8.55;3.10;;;;;7.60;99251.00;;;;5052306;28;20056;-68
2023/05/18 03:39:47;;;;;;;11.50;3.72;;;;;7.60;99251.00;;;;5051989;28;20052;-69
2023/05/18 03:42:16;;;;;;;8.70;3.47;;;;;7.60;99258.00;;;;5038172;28;20094;-69
2023/05/18 03:44:44;;;;;;;9.88;3.75;;;;;7.50;99255.00;;;;5055865;28;20051;-69
2023/05/18 03:47:11;;;;;;;6.32;3.10;;;;;7.60;99250.00;;;;5060229;28;20061;-69
2023/05/18 03:49:38;;;;;;;6.40;3.42;;;;;7.60;99262.00;;;;5060914;28;20083;-69
2023/05/18 03:52:05;;;;;;;6.47;3.03;;;;;7.60;99257.00;;;;5065454;28;20045;-69
2023/05/18 03:54:31;;;;;;;8.80;4.45;;;;;7.50;99253.00;;;;5059015;28;20045;-69
2023/05/18 03:56:58;;;;;;;7.35;3.33;;;;;7.50;99266.00;;;;5057741;28;20052;-69
2023/05/18 03:59:25;;;;;;;5.93;3.50;;;;;7.50;99265.00;;;;5057059;28;20045;-69
2023/05/18 04:01:52;;;;;;;11.10;3.70;;;;;7.50;99262.00;;;;5059983;28;20049;-69
2023/05/18 04:04:22;;;;;;;10.05;3.22;;;;;7.50;99260.00;;;;5060107;28;20048;-69
2023/05/18 04:06:51;;;;;;;6.13;3.15;;;;;7.40;99265.00;;;;5055978;28;20052;-69
2023/05/18 04:09:19;;;;;;;8.15;3.47;;;;;7.40;99259.00;;;;5057470;28;20420;-69
2023/05/18 04:11:47;;;;;;;11.15;3.70;;;;;7.50;99261.00;;;;5056548;28;20068;-68
2023/05/18 04:14:13;;;;;;;7.53;3.25;;;;;7.50;99263.00;;;;5037024;28;20144;-70
2023/05/18 04:16:40;;;;;;;7.85;3.35;;;;;7.60;99262.00;;;;5052727;28;20140;-68
2023/05/18 04:19:07;;;;;;;8.82;3.72;;;;;7.40;99265.00;;;;5053363;28;20406;-68
2023/05/18 04:21:34;;;;;;;9.13;3.33;;;;;7.40;99261.00;;;;5052376;28;20436;-68
2023/05/18 04:24:04;;;;;;;9.57;3.27;;;;;7.60;99268.00;;;;5053284;28;20052;-68
2023/05/18 04:26:37;;;;;;;6.78;3.00;;;;;7.70;99265.00;;;;5035670;28;20045;-68
2023/05/18 04:29:06;;;;;;;10.70;3.30;;;;;7.80;99264.00;;;;5035592;28;20049;-68
2023/05/18 04:31:34;;;;;;;6.35;3.20;;;;;7.90;99263.00;;;;5053847;28;20123;-68
2023/05/18 04:34:01;;;;;;;10.15;4.00;;;;;8.00;99272.00;;;;5054915;28;20127;-68
2023/05/18 04:36:29;;;;;;;6.65;3.80;;;;;8.10;99276.00;;;;5056988;28;20072;-68
2023/05/18 04:38:57;;;;;;;6.22;3.60;;;;;8.10;99279.00;;;;5066467;28;20052;-68
2023/05/18 04:41:24;;;;;;;6.20;3.38;;;;;8.10;99276.00;;;;5060021;28;20068;-73
2023/05/18 04:43:52;;;;;;;7.18;3.33;;;;;8.10;99272.00;;;;5070970;28;20049;-69
2023/05/18 04:46:21;;;;;;;9.20;4.85;;;;;8.10;99278.00;;;;5074095;28;20051;-68
2023/05/18 04:48:51;;;;;;;10.52;3.83;;;;;8.20;99287.00;;;;5074709;28;20072;-68
2023/05/18 04:51:21;;;;;;;7.28;3.70;;;;;8.20;99286.00;;;;5074304;28;20060;-68
2023/05/18 04:53:51;;;;;;;7.88;5.07;;;;;8.20;99289.00;;;;5074264;28;20037;-68
2023/05/18 04:56:21;;;;;;;8.82;4.50;;;;;8.40;99285.00;;;;5073794;28;20033;-69
2023/05/18 04:58:48;;;;;;;11.05;5.32;;;;;8.40;99288.00;;;;5073739;28;20040;-69
2023/05/18 05:01:16;;;;;;;11.85;4.78;;;;;8.40;99288.00;;;;5071362;28;20048;-68
2023/05/18 05:03:43;;;;;;;10.35;4.97;;;;;8.30;99294.00;;;;5064893;28;20055;-69
2023/05/18 05:06:10;;;;;;;8.02;4.43;;;;;8.20;99299.00;;;;5064557;28;20401;-69
2023/05/18 05:08:37;;;;;;;8.80;6.60;;;;;8.30;99291.00;;;;5065839;28;20053;-68
2023/05/18 05:11:03;;;;;;;11.65;5.93;;;;;8.50;99295.00;;;;5051005;28;20033;-69
2023/05/18 05:13:30;;;;;;;9.65;4.53;;;;;8.70;99292.00;;;;5059997;28;20044;-69
2023/05/18 05:15:57;;;;;;;9.93;4.63;;;;;8.80;99284.00;;;;5077415;28;20045;-69
2023/05/18 05:18:24;;;;;;;8.82;3.33;;;;;8.80;99290.00;;;;5077172;28;20097;-69
2023/05/18 05:20:52;;;;;;;11.10;4.50;;;;;8.80;99287.00;;;;5077008;28;20056;-69
2023/05/18 05:23:20;;;;;;;10.52;3.97;;;;;8.90;99292.00;;;;5060860;28;20041;-70
2023/05/18 05:25:47;;;;;;;8.38;3.63;;;;;9.00;99293.00;;;;5076641;28;20036;-69
2023/05/18 05:28:13;;;;;;;8.95;4.22;;;;;9.10;99296.00;;;;5076754;28;20052;-69
2023/05/18 05:30:41;;;;;;;11.73;3.47;;;;;9.10;99295.00;;;;5075728;28;20047;-69
2023/05/18 05:33:07;;;;;;;10.00;3.90;;;;;9.30;99292.00;;;;5076339;28;20036;-69
2023/05/18 05:35:35;;;;;;;10.23;3.47;;;;;9.40;99291.00;;;;5075477;28;20055;-69
2023/05/18 05:38:02;;;;;;;9.20;3.67;;;;;9.40;99294.00;;;;5075323;28;20068;-69
2023/05/18 05:40:30;;;;;;;6.93;2.80;;;;;9.50;99292.00;;;;5077503;28;20080;-70
2023/05/18 05:42:57;;;;;;;8.05;3.45;;;;;9.70;99289.00;;;;5077230;28;20027;-69
2023/05/18 05:45:27;;;;;;;11.35;3.75;;;;;9.80;99304.00;;;;5077700;28;20037;-69
2023/05/18 05:47:56;;;;;;;8.63;3.65;;;;;10.00;99300.00;;;;5077362;28;20108;-69
2023/05/18 05:50:23;;;;;;;9.35;3.65;;;;;10.10;99308.00;;;;5080739;28;20043;-70
2023/05/18 05:52:53;;;;;;;5.25;2.65;;;;;10.00;99309.00;;;;5081601;28;20037;-68
2023/05/18 05:55:22;;;;;;;9.52;3.45;;;;;10.10;99307.00;;;;5064407;28;20490;-68
2023/05/18 05:57:49;;;;;;;8.80;3.60;;;;;10.10;99295.00;;;;5057727;28;20048;-68
2023/05/18 06:00:16;;;;;;;9.32;3.28;;;;;10.20;99299.00;;;;5069803;28;20056;-67
2023/05/18 06:02:57;;;;;;;9.75;3.05;;;;;10.30;99304.00;;;;5073153;28;20053;-68
2023/05/18 06:05:30;;;;;;;8.68;3.60;;;;;10.50;99307.00;;;;5078143;28;20079;-67
2023/05/18 06:07:58;;;;;;;10.70;3.42;;;;;10.60;99300.00;;;;5078135;28;20029;-67
2023/05/18 06:10:24;;;;;;;5.43;3.00;;;;;10.70;99306.00;;;;5076494;28;20076;-68
2023/05/18 06:12:52;;;;;;;10.60;3.10;;;;;10.70;99321.00;;;;5076780;28;20051;-68
2023/05/18 06:15:22;;;;;;;8.52;3.17;;;;;10.80;99309.00;;;;5061348;28;20068;-69
2023/05/18 06:17:49;;;;;;;8.82;3.38;;;;;10.90;99316.00;;;;5055065;28;20056;-68
2023/05/18 06:20:16;;;;;;;4.82;2.47;;;;;10.90;99305.00;;;;5054287;28;20563;-68
2023/05/18 06:22:43;;;;;;;12.68;3.53;;;;;11.10;99310.00;;;;5054922;28;20045;-69
2023/05/18 06:25:30;;;;;;;8.15;2.60;;;;;11.20;99308.00;;;;5054530;28;20049;-69
2023/05/18 06:28:10;;;;;;;10.38;3.13;;;;;11.20;99311.00;;;;5053719;28;20052;-69
2023/05/18 06:30:40;;;;;;;8.10;2.80;;;;;11.20;99314.00;;;;5053647;28;20049;-69
2023/05/18 06:33:20;;;;;;;4.63;2.47;;;;;11.20;99311.00;;;;5054012;28;20052;-69
2023/05/18 06:35:46;;;;;;;8.70;2.88;;;;;11.20;99322.00;;;;5053860;28;20112;-68
2023/05/18 06:38:13;;;;;;;9.98;2.78;;;;;11.20;99319.00;;;;5037484;28;20208;-68
2023/05/18 06:40:40;;;;;;;7.20;2.63;;;;;11.30;99331.00;;;;5037174;28;20049;-68
2023/05/18 06:43:08;;;;;;;7.70;3.20;;;;;11.20;99321.00;;;;5053552;28;20513;-68
2023/05/18 06:45:55;;;;;;;10.13;2.75;;;;;11.30;99322.00;;;;5054816;28;20057;-68
2023/05/18 06:48:38;;;;;;;9.93;2.78;;;;;11.30;99325.00;;;;5053291;28;20051;-68
2023/05/18 06:51:05;;;;;;;7.50;2.72;;;;;11.40;99327.00;;;;5053245;28;20115;-69
2023/05/18 06:53:32;;;;;;;9.48;2.70;;;;;11.40;99331.00;;;;5053101;28;20510;-68
2023/05/18 06:55:58;;;;;;;5.80;2.70;;;;;11.50;99325.00;;;;5054370;28;20040;-69
2023/05/18 06:58:26;;;;;;;5.55;2.60;;;;;11.50;99321.00;;;;5053245;28;20094;-69
2023/05/18 07:00:54;;;;;;;10.38;2.70;;;;;11.50;99322.00;;;;5052333;28;20450;-69
2023/05/18 07:03:21;;;;;;;7.05;2.90;;;;;11.50;99330.00;;;;5052920;28;20076;-69
2023/05/18 07:05:48;;;;;;;6.88;3.03;;;;;11.60;99327.00;;;;5036610;28;20081;-68
2023/05/18 07:08:15;;;;;;;8.10;3.05;;;;;11.70;99324.00;;;;5052614;28;20059;-69
2023/05/18 07:10:41;;;;;;;9.75;3.58;;;;;11.80;99328.00;;;;5053876;28;20044;-68
2023/05/18 07:13:08;;;;;;;8.65;2.85;;;;;11.80;99319.00;;;;5052894;28;20414;-68
2023/05/18 07:15:34;;;;;;;7.45;2.63;;;;;12.00;99330.00;;;;5052668;28;20041;-68
2023/05/18 07:18:02;;;;;;;9.68;2.58;;;;;12.00;99315.00;;;;5052808;28;20045;-69
2023/05/18 07:20:29;;;;;;;6.45;2.45;;;;;12.20;99325.00;;;;5053023;28;20049;-69
2023/05/18 07:22:55;;;;;;;7.40;2.63;;;;;12.30;99315.00;;;;5052856;28;20052;-69
2023/05/18 07:25:22;;;;;;;7.72;2.30;;;;;12.30;99311.00;;;;5053841;28;20041;-69
2023/05/18 07:27:53;;;;;;;8.82;2.53;;;;;12.30;99326.00;;;;5053845;28;20047;-69
2023/05/18 07:30:21;;;;;;;9.60;2.70;;;;;12.40;99317.00;;;;5053278;28;20120;-70
2023/05/18 07:32:47;;;;;;;7.35;3.00;;;;;12.50;99308.00;;;;5052495;28;20060;-70
2023/05/18 07:35:15;;;;;;;7.40;2.55;;;;;12.60;99313.00;;;;5053302;28;20091;-69
2023/05/18 07:37:42;;;;;;;8.20;2.78;;;;;12.70;99308.00;;;;5053470;28;20445;-69
2023/05/18 07:40:09;;;;;;;5.82;2.50;;;;;12.90;99309.00;;;;5052222;28;20093;-68
2023/05/18 07:42:38;;;;;;;8.70;2.58;;;;;13.00;99311.00;;;;5053397;28;20458;-70
2023/05/18 07:45:05;;;;;;;6.13;2.42;;;;;12.90;99310.00;;;;5053667;28;20041;-69
2023/05/18 07:47:32;;;;;;;7.75;2.20;;;;;13.00;99305.00;;;;5056340;28;20564;-69
2023/05/18 07:49:59;;;;;;;4.72;2.67;;;;;13.00;99313.00;;;;5054217;28;20056;-69
2023/05/18 07:52:26;;;;;;;9.20;2.60;;;;;13.00;99309.00;;;;5054636;28;20051;-70
2023/05/18 07:54:55;;;;;;;6.78;2.42;;;;;13.00;99316.00;;;;5052270;28;20045;-69
2023/05/18 07:57:22;;;;;;;5.60;2.30;;;;;13.10;99314.00;;;;5052208;28;20409;-69
2023/05/18 07:59:49;;;;;;;8.25;2.30;;;;;13.20;99308.00;;;;5052170;28;20512;-70
2023/05/18 08:02:16;;;;;;;8.30;2.80;;;;;13.30;99300.00;;;;5052134;28;20041;-70
2023/05/18 08:04:46;;;;;;;9.23;2.65;;;;;13.30;99305.00;;;;5035868;28;20048;-68
2023/05/18 08:07:13;;;;;;;7.68;2.30;;;;;13.30;99296.00;;;;5051877;28;20095;-67
2023/05/18 08:09:40;;;;;;;7.72;2.55;;;;;13.50;99300.00;;;;5052991;28;20410;-69
2023/05/18 08:12:07;;;;;;;6.10;2.60;;;;;13.70;99295.00;;;;5052456;28;20079;-69
2023/05/18 08:14:33;;;;;;;9.80;3.05;;;;;13.70;99296.00;;;;5053206;28;20120;-69
2023/05/18 08:17:02;;;;;;;8.25;2.78;;;;;13.80;99291.00;;;;5052962;28;20490;-68
2023/05/18 08:19:29;;;;;;;9.25;2.67;;;;;13.80;99297.00;;;;5052780;28;20124;-68
2023/05/18 08:21:56;;;;;;;6.53;2.22;;;;;13.90;99291.00;;;;5052850;28;20051;-69
2023/05/18 08:24:22;;;;;;;10.00;2.67;;;;;14.00;99304.00;;;;5035123;28;20559;-69
2023/05/18 08:26:50;;;;;;;7.03;2.45;;;;;14.00;99289.00;;;;5052654;28;20041;-69
2023/05/18 08:29:17;;;;;;;8.00;2.60;;;;;14.00;99290.00;;;;5051048;28;20139;-67
2023/05/18 08:31:44;;;;;;;7.07;2.20;;;;;14.30;99296.00;;;;5051637;28;20045;-68
2023/05/18 08:34:13;;;;;;;9.82;2.97;;;;;14.30;99291.00;;;;5051503;28;20131;-67
2023/05/18 08:36:43;;;;;;;10.13;2.22;;;;;14.30;99284.00;;;;5051177;28;20490;-68
2023/05/18 08:39:11;;;;;;;9.68;2.40;;;;;14.40;99289.00;;;;5050998;28;20119;-68
2023/05/18 08:41:49;;;;;;;4.88;2.45;;;;;14.60;99280.00;;;;5052935;28;20041;-69
2023/05/18 08:44:21;;;;;;;6.70;2.63;;;;;14.50;99289.00;;;;5052393;28;20102;-67
2023/05/18 08:46:50;;;;;;;9.30;2.58;;;;;14.60;99290.00;;;;5051346;28;20128;-68
2023/05/18 08:49:19;;;;;;;8.02;2.42;;;;;14.60;99286.00;;;;5051039;28;20076;-68
2023/05/18 08:51:59;;;;;;;6.30;2.38;;;;;14.70;99277.00;;;;5052160;28;20107;-68
2023/05/18 08:54:29;;;;;;;8.60;2.33;;;;;14.70;99289.00;;;;5052272;28;20102;-68
2023/05/18 08:56:56;;;;;;;4.70;2.03;;;;;14.70;99281.00;;;;5052207;28;20571;-68
2023/05/18 08:59:26;;;;;;;7.93;2.42;;;;;14.70;99283.00;;;;5052078;28;20571;-69
2023/05/18 09:01:53;;;;;;;7.43;2.95;;;;;14.90;99284.00;;;;5050870;28;20045;-69
2023/05/18 09:04:21;;;;;;;7.43;3.00;;;;;15.30;99288.00;;;;5050814;28;20577;-69
2023/05/18 09:06:48;;;;;;;6.35;2.00;;;;;15.30;99286.00;;;;5034280;28;20046;-69
2023/05/18 09:09:15;;;;;;;6.32;2.50;;;;;15.30;99283.00;;;;5050732;28;20110;-68
2023/05/18 09:11:42;;;;;;;6.53;2.47;;;;;15.30;99274.00;;;;5052120;28;20069;-68
2023/05/18 09:14:09;;;;;;;8.50;2.72;;;;;15.50;99276.00;;;;5052089;28;20041;-67
2023/05/18 09:16:36;;;;;;;7.43;2.70;;;;;15.60;99273.00;;;;5034228;28;20102;-69
2023/05/18 09:19:03;;;;;;;5.85;2.38;;;;;15.70;99270.00;;;;5034419;28;20045;-69
2023/05/18 09:21:31;;;;;;;12.32;3.10;;;;;15.70;99269.00;;;;5052343;28;20406;-70
2023/05/18 09:24:01;;;;;;;9.07;2.65;;;;;16.10;99277.00;;;;5053779;28;20502;-68
2023/05/18 09:26:28;;;;;;;9.38;2.67;;;;;16.20;99271.00;;;;5038302;28;20453;-70
2023/05/18 09:28:54;;;;;;;11.95;2.30;;;;;16.30;99278.00;;;;5055989;28;20506;-69
2023/05/18 09:31:23;;;;;;;8.57;2.80;;;;;16.30;99283.00;;;;5055970;28;20049;-70
2023/05/18 09:33:51;;;;;;;9.25;2.70;;;;;16.30;99280.00;;;;5056147;28;20509;-69
2023/05/18 09:36:24;;;;;;;8.55;2.47;;;;;16.30;99270.00;;;;5055902;28;20041;-68
2023/05/18 09:38:52;;;;;;;4.68;2.35;;;;;16.40;99279.00;;;;5038908;28;20102;-68
2023/05/18 09:41:18;;;;;;;6.68;2.47;;;;;16.40;99267.00;;;;5056712;28;20489;-68
2023/05/18 09:43:50;;;;;;;10.95;2.60;;;;;16.40;99280.00;;;;5055297;28;20111;-68
2023/05/18 09:46:17;;;;;;;5.30;2.58;;;;;16.40;99264.00;;;;5056322;28;20067;-68
2023/05/18 09:48:51;;;;;;;12.02;2.95;;;;;16.60;99269.00;;;;5056860;28;20067;-69
2023/05/18 09:51:20;;;;;;;7.55;2.63;;;;;16.60;99273.00;;;;5056269;28;20076;-68
2023/05/18 09:53:48;;;;;;;7.05;2.35;;;;;16.70;99276.00;;;;5056277;28;20561;-69
2023/05/18 09:56:16;;;;;;;8.10;2.78;;;;;16.70;99277.00;;;;5056332;28;20037;-69
2023/05/18 09:58:44;;;;;;;8.23;3.15;;;;;16.60;99275.00;;;;5055305;28;20045;-68
2023/05/18 10:01:11;;;;;;;9.77;2.80;;;;;16.40;99289.00;;;;5055718;28;20071;-69
2023/05/18 10:03:38;;;;;;;4.25;2.60;;;;;16.50;99270.00;;;;5056522;28;20041;-68
2023/05/18 10:06:09;;;;;;;5.88;2.75;;;;;16.50;99274.00;;;;5055057;28;20056;-67
2023/05/18 10:08:36;;;;;;;10.02;3.30;;;;;16.70;99269.00;;;;5057832;28;20049;-69
2023/05/18 10:11:03;;;;;;;5.60;2.70;;;;;16.90;99258.00;;;;5056041;28;20059;-67
2023/05/18 10:13:31;;;;;;;6.95;2.78;;;;;17.00;99264.00;;;;5057217;28;20573;-69
2023/05/18 10:16:02;;;;;;;6.82;2.88;;;;;17.10;99264.00;;;;5056770;28;20040;-68
2023/05/18 10:18:33;;;;;;;8.05;2.88;;;;;17.10;99263.00;;;;5057180;28;20403;-68
2023/05/18 10:21:02;;;;;;;7.80;2.28;;;;;17.30;99269.00;;;;5056336;28;20071;-68
2023/05/18 10:23:33;;;;;;;9.88;2.75;;;;;17.20;99266.00;;;;5055777;28;20102;-68
2023/05/18 10:26:04;;;;;;;6.68;2.70;;;;;17.20;99274.00;;;;5055158;28;20052;-70
2023/05/18 10:28:42;;;;;;;5.60;2.63;;;;;17.10;99268.00;;;;5053850;28;20498;-67
2023/05/18 10:31:09;;;;;;;6.95;3.25;;;;;17.30;99258.00;;;;5053740;28;20055;-68
2023/05/18 10:33:36;;;;;;;8.73;2.65;;;;;17.30;99263.00;;;;5036730;28;20132;-69
2023/05/18 10:36:05;;;;;;;7.68;2.40;;;;;17.20;99266.00;;;;5036225;28;20509;-70
2023/05/18 10:38:35;;;;;;;6.43;2.33;;;;;17.10;99266.00;;;;5053281;28;20072;-68
2023/05/18 10:41:04;;;;;;;5.85;2.47;;;;;17.20;99261.00;;;;5053087;28;20045;-68
2023/05/18 10:43:32;;;;;;;6.07;2.80;;;;;17.30;99259.00;;;;5054531;28;20075;-70
2023/05/18 10:46:00;;;;;;;9.05;2.75;;;;;17.40;99258.00;;;;5054433;28;20041;-67
2023/05/18 10:48:28;;;;;;;10.20;2.63;;;;;17.30;99259.00;;;;5053017;28;20128;-67
2023/05/18 10:50:57;;;;;;;7.72;3.00;;;;;17.20;99248.00;;;;5052832;28;20049;-67
2023/05/18 10:53:25;;;;;;;7.75;2.58;;;;;17.30;99243.00;;;;5052781;28;20076;-68
2023/05/18 10:55:53;;;;;;;13.98;3.63;;;;;17.50;99253.00;;;;5052894;28;20056;-67
2023/05/18 10:58:23;;;;;;;7.30;3.08;;;;;17.60;99259.00;;;;5053786;28;20493;-67
2023/05/18 11:00:54;;;;;;;5.93;2.85;;;;;17.60;99261.00;;;;5053488;28;20079;-68
2023/05/18 11:03:21;;;;;;;7.35;2.70;;;;;17.50;99247.00;;;;5054203;28;20051;-68
2023/05/18 11:05:50;;;;;;;7.97;2.97;;;;;17.40;99244.00;;;;5053940;28;20048;-68
2023/05/18 11:08:25;;;;;;;6.90;2.90;;;;;17.60;99241.00;;;;5053957;28;20517;-68
2023/05/18 11:10:59;;;;;;;6.18;2.75;;;;;17.70;99244.00;;;;5053718;28;20045;-70
2023/05/18 11:13:30;;;;;;;7.28;3.10;;;;;17.70;99251.00;;;;5052710;28;20055;-69
2023/05/18 11:15:58;;;;;;;7.32;2.40;;;;;17.60;99236.00;;;;5053817;28;20107;-69
2023/05/18 11:18:37;;;;;;;4.95;2.28;;;;;17.80;99248.00;;;;5053884;28;20494;-69
2023/05/18 11:21:49;;;;;;;8.27;2.50;;;;;17.90;99244.00;;;;5053401;28;20075;-72
2023/05/18 11:24:31;;;;;;;7.20;2.75;;;;;18.00;99235.00;;;;5052562;28;20069;-68
2023/05/18 11:27:14;;;;;;;5.38;2.60;;;;;18.10;99239.00;;;;5052337;28;20037;-68
2023/05/18 11:29:46;;;;;;;8.20;3.03;;;;;18.20;99236.00;;;;5035599;28;20045;-68
2023/05/18 11:32:27;;;;;;;7.45;2.58;;;;;18.30;99237.00;;;;5052973;28;20045;-68
2023/05/18 11:34:57;;;;;;;7.97;2.97;;;;;18.50;99237.00;;;;5036854;28;20049;-69
2023/05/18 11:37:39;;;;;;;6.95;2.47;;;;;18.40;99242.00;;;;5053442;28;20045;-69
2023/05/18 11:40:12;;;;;;;6.25;2.38;;;;;18.30;99230.00;;;;5052970;28;20052;-70
2023/05/18 11:42:39;;;;;;;7.18;2.70;;;;;18.30;99229.00;;;;5053542;28;20049;-69
2023/05/18 11:45:10;;;;;;;5.35;2.20;;;;;18.30;99235.00;;;;5036983;28;20387;-69
2023/05/18 11:47:39;;;;;;;7.68;2.65;;;;;18.30;99237.00;;;;5059323;28;20041;-69
2023/05/18 11:50:13;;;;;;;7.10;2.42;;;;;18.20;99228.00;;;;5059114;28;20045;-71
2023/05/18 11:52:52;;;;;;;6.40;2.53;;;;;18.30;99231.00;;;;5056040;28;20052;-69
2023/05/18 11:55:20;;;;;;;7.05;2.22;;;;;18.40;99230.00;;;;5055506;28;20044;-71
2023/05/18 11:57:50;;;;;;;7.70;2.28;;;;;18.30;99233.00;;;;5058162;28;20136;-70
2023/05/18 12:00:19;;;;;;;6.20;2.17;;;;;18.40;99236.00;;;;5056820;28;20036;-71
2023/05/18 12:02:47;;;;;;;5.88;2.45;;;;;18.50;99237.00;;;;5039007;28;20091;-69
2023/05/18 12:05:15;;;;;;;5.85;2.58;;;;;18.60;99225.00;;;;5037102;28;20374;-69
2023/05/18 12:07:43;;;;;;;5.25;2.38;;;;;18.70;99220.00;;;;5055632;28;20049;-70
2023/05/18 12:10:13;;;;;;;6.20;2.60;;;;;18.80;99218.00;;;;5055145;28;20486;-69
2023/05/18 12:12:40;;;;;;;7.38;2.40;;;;;18.90;99232.00;;;;5053784;28;20659;-69
2023/05/18 12:15:09;;;;;;;8.65;2.65;;;;;18.80;99241.00;;;;5054895;28;20044;-69
2023/05/18 12:17:40;;;;;;;7.45;2.25;;;;;18.70;99229.00;;;;5053699;28;20040;-69
2023/05/18 12:20:12;;;;;;;6.53;1.98;;;;;18.80;99235.00;;;;5053808;28;20120;-69
2023/05/18 12:22:39;;;;;;;6.40;2.40;;;;;18.90;99240.00;;;;5052492;28;20421;-69
2023/05/18 12:25:07;;;;;;;5.82;2.58;;;;;18.70;99231.00;;;;5053463;28;20037;-70
2023/05/18 12:27:43;;;;;;;7.82;2.38;;;;;18.50;99215.00;;;;5052548;28;20040;-69
2023/05/18 12:30:12;;;;;;;6.13;2.22;;;;;18.60;99224.00;;;;5035155;28;20082;-69